Time;durP1;ratioP1;P1;durP2;ratioP2;P2;SDS_P1;SDS_P2;PMS_P1;PMS_P2;Temp;Humidity;BMP_temperature;BMP_pressure;BME280_temperature;BME280_humidity;BME280_pressure;Samples;Min_cycle;Max_cycle;Signal;HPM_P1;HPM_P2
2023/03/13 00:02:01;;;;;;;15.77;3.85;;;10.10;99.90;;;;;;5074412;28;20063;-75
2023/03/13 00:04:27;;;;;;;19.67;4.10;;;10.10;99.90;;;;;;5069181;28;20174;-75
2023/03/13 00:06:53;;;;;;;19.20;3.95;;;10.10;99.90;;;;;;5072662;28;20500;-76
2023/03/13 00:09:18;;;;;;;18.50;4.38;;;10.10;99.90;;;;;;5056834;28;20074;-75
2023/03/13 00:11:45;;;;;;;22.55;4.25;;;10.20;99.90;;;;;;5079314;28;20048;-75
2023/03/13 00:14:10;;;;;;;23.38;4.88;;;10.20;99.90;;;;;;5071846;28;20047;-75
2023/03/13 00:16:38;;;;;;;24.83;4.80;;;10.10;99.90;;;;;;5057665;28;20456;-74
2023/03/13 00:19:05;;;;;;;21.70;4.50;;;10.20;99.90;;;;;;5073637;28;20048;-75
2023/03/13 00:21:31;;;;;;;18.27;3.75;;;10.10;99.90;;;;;;5092417;28;20077;-75
2023/03/13 00:23:58;;;;;;;;;;;10.20;99.90;;;;;;5059440;28;20078;-75
2023/03/13 00:26:25;;;;;;;18.20;3.88;;;10.20;99.90;;;;;;5074241;28;19965;-74
2023/03/13 00:28:52;;;;;;;19.90;4.68;;;10.10;99.90;;;;;;5072725;28;20052;-74
2023/03/13 00:31:20;;;;;;;20.23;4.43;;;10.20;99.90;;;;;;5073365;28;20395;-75
2023/03/13 00:33:48;;;;;;;20.80;4.50;;;10.30;99.90;;;;;;5073983;28;20056;-74
2023/03/13 00:36:20;;;;;;;25.13;5.18;;;10.10;99.90;;;;;;5072168;28;20130;-75
2023/03/13 00:38:46;;;;;;;22.50;4.07;;;10.10;99.90;;;;;;5055046;28;20068;-74
2023/03/13 00:41:17;;;;;;;20.35;4.60;;;10.20;99.90;;;;;;5056485;28;20123;-75
2023/03/13 00:43:44;;;;;;;19.98;4.70;;;10.20;99.90;;;;;;5074975;28;20143;-75
2023/03/13 00:46:11;;;;;;;22.67;4.75;;;10.30;99.90;;;;;;5071833;28;20048;-75
2023/03/13 00:48:37;;;;;;;26.52;5.25;;;10.30;99.90;;;;;;5072498;28;20055;-75
2023/03/13 00:51:04;;;;;;;24.88;5.10;;;10.40;99.90;;;;;;5072324;28;20048;-75
2023/03/13 00:53:30;;;;;;;21.15;4.90;;;10.30;99.90;;;;;;5082810;28;20094;-75
2023/03/13 00:55:57;;;;;;;27.50;4.93;;;10.20;99.90;;;;;;5071967;28;20044;-75
2023/03/13 00:58:24;;;;;;;24.13;4.85;;;10.30;99.90;;;;;;5073031;28;20038;-74
2023/03/13 01:00:51;;;;;;;19.80;4.88;;;10.40;99.90;;;;;;5055811;28;20048;-74
2023/03/13 01:03:16;;;;;;;16.88;4.63;;;10.30;99.90;;;;;;5072377;28;20040;-74
2023/03/13 01:05:42;;;;;;;24.70;5.18;;;10.50;99.90;;;;;;5073464;28;20044;-74
2023/03/13 01:08:08;;;;;;;23.85;4.65;;;10.50;99.90;;;;;;5054977;28;20435;-75
2023/03/13 01:10:34;;;;;;;18.10;4.85;;;10.30;99.90;;;;;;5071959;28;20105;-74
2023/03/13 01:12:59;;;;;;;19.92;4.90;;;10.30;99.90;;;;;;5055092;28;20056;-74
2023/03/13 01:15:25;;;;;;;18.75;4.63;;;10.30;99.90;;;;;;5072483;28;20043;-74
2023/03/13 01:17:51;;;;;;;17.65;4.10;;;10.60;99.90;;;;;;5081362;28;20065;-74
2023/03/13 01:20:17;;;;;;;14.77;4.22;;;10.40;99.90;;;;;;5087420;28;20060;-75
2023/03/13 01:22:42;;;;;;;16.98;3.88;;;10.30;99.90;;;;;;5071308;28;20052;-73
2023/03/13 01:25:08;;;;;;;15.73;4.32;;;10.60;99.90;;;;;;5055356;28;20055;-74
2023/03/13 01:27:34;;;;;;;19.05;4.45;;;10.60;99.90;;;;;;5071760;28;20044;-74
2023/03/13 01:30:00;;;;;;;22.83;4.90;;;10.70;99.90;;;;;;5055118;28;20045;-75
2023/03/13 01:32:25;;;;;;;28.48;4.97;;;10.50;99.90;;;;;;5071020;28;20048;-74
2023/03/13 01:34:51;;;;;;;19.75;4.82;;;10.40;99.90;;;;;;5070801;28;20060;-74
2023/03/13 01:37:16;;;;;;;24.40;5.20;;;10.70;99.90;;;;;;5054980;28;20068;-74
2023/03/13 01:39:42;;;;;;;19.73;5.07;;;10.60;99.90;;;;;;5070717;28;20040;-74
2023/03/13 01:42:08;;;;;;;19.48;4.55;;;10.70;99.90;;;;;;5074356;28;20564;-73
2023/03/13 01:44:49;;;;;;;19.65;5.15;;;10.50;99.90;;;;;;5071360;28;20458;-74
2023/03/13 01:47:15;;;;;;;17.52;4.10;;;10.70;99.90;;;;;;5072008;28;20047;-74
2023/03/13 01:49:43;;;;;;;20.75;4.35;;;10.50;99.90;;;;;;5055002;28;20090;-74
2023/03/13 01:52:14;;;;;;;21.98;4.57;;;10.70;99.90;;;;;;5073265;28;20055;-74
2023/03/13 01:54:50;;;;;;;15.70;5.18;;;10.50;99.90;;;;;;5071200;28;20076;-73
2023/03/13 01:57:20;;;;;;;17.73;4.17;;;10.60;99.90;;;;;;5070260;28;20097;-75
2023/03/13 01:59:52;;;;;;;17.77;4.32;;;10.50;99.90;;;;;;5070889;28;20043;-74
2023/03/13 02:02:19;;;;;;;19.13;4.13;;;10.80;99.90;;;;;;5070743;28;20045;-74
2023/03/13 02:04:49;;;;;;;18.50;4.43;;;10.90;99.90;;;;;;5070205;28;20684;-75
2023/03/13 02:07:19;;;;;;;20.35;4.43;;;11.00;99.90;;;;;;5069927;28;20075;-73
2023/03/13 02:09:50;;;;;;;17.08;4.13;;;10.70;99.90;;;;;;5071925;28;20040;-75
2023/03/13 02:12:23;;;;;;;20.00;4.88;;;10.50;99.90;;;;;;5070703;28;20044;-74
2023/03/13 02:14:50;;;;;;;19.45;4.78;;;10.50;99.90;;;;;;5070544;28;20722;-74
2023/03/13 02:17:16;;;;;;;18.58;4.32;;;10.50;99.90;;;;;;5069881;28;20110;-74
2023/03/13 02:19:45;;;;;;;21.92;5.32;;;10.50;99.90;;;;;;5082377;28;20079;-74
2023/03/13 02:22:27;;;;;;;25.05;5.05;;;10.50;99.90;;;;;;5062899;28;20040;-74
2023/03/13 02:25:11;;;;;;;23.42;4.72;;;11.20;99.90;;;;;;5069325;28;20051;-74
2023/03/13 02:27:38;;;;;;;18.13;4.38;;;11.10;99.90;;;;;;5053533;28;20135;-75
2023/03/13 02:30:05;;;;;;;19.20;4.57;;;11.20;99.90;;;;;;5077677;28;20403;-74
2023/03/13 02:32:32;;;;;;;13.98;4.43;;;10.50;99.90;;;;;;5090638;28;20131;-73
2023/03/13 02:35:03;;;;;;;17.83;4.25;;;10.80;99.90;;;;;;5053880;28;20082;-75
2023/03/13 02:37:30;;;;;;;15.85;4.60;;;11.20;99.90;;;;;;5070437;28;20546;-75
2023/03/13 02:39:59;;;;;;;16.42;3.83;;;10.80;99.90;;;;;;5071894;28;20046;-75
2023/03/13 02:42:27;;;;;;;17.30;3.92;;;10.80;99.90;;;;;;5078947;28;20066;-74
2023/03/13 02:44:52;;;;;;;17.50;4.40;;;10.70;99.90;;;;;;5072249;28;20376;-75
2023/03/13 02:47:23;;;;;;;14.52;3.83;;;10.90;99.90;;;;;;5070010;28;20066;-74
2023/03/13 02:49:49;;;;;;;15.70;3.85;;;10.60;99.90;;;;;;5072950;28;20044;-74
2023/03/13 02:52:46;;;;;;;12.50;3.85;;;10.70;99.90;;;;;;5053890;28;20056;-74
2023/03/13 02:55:21;;;;;;;11.13;3.42;;;10.70;99.90;;;;;;5069565;28;20147;-74
2023/03/13 02:57:47;;;;;;;12.20;3.47;;;11.00;99.90;;;;;;5053479;28;20043;-74
2023/03/13 03:00:15;;;;;;;9.32;2.88;;;10.70;99.90;;;;;;5056429;28;20036;-74
2023/03/13 03:02:41;;;;;;;7.97;3.15;;;11.40;99.90;;;;;;5069467;28;20059;-74
2023/03/13 03:05:08;;;;;;;11.50;3.47;;;12.10;99.90;;;;;;5070032;28;20081;-76
2023/03/13 03:07:34;;;;;;;;;;;11.60;99.90;;;;;;5037437;28;20194;-75
2023/03/13 03:10:00;;;;;;;11.18;3.25;;;12.20;99.90;;;;;;5081844;28;20010;-75
2023/03/13 03:12:25;;;;;;;7.60;2.70;;;11.10;99.90;;;;;;5077456;28;20403;-75
2023/03/13 03:14:51;;;;;;;7.47;2.70;;;12.10;99.90;;;;;;5069071;28;20071;-75
2023/03/13 03:17:16;;;;;;;8.15;2.88;;;10.90;99.90;;;;;;5072630;28;20032;-75
2023/03/13 03:19:42;;;;;;;6.28;2.50;;;11.60;99.90;;;;;;5091781;28;20040;-75
2023/03/13 03:22:08;;;;;;;10.02;2.63;;;12.40;99.90;;;;;;5082512;28;20041;-76
2023/03/13 03:24:33;;;;;;;6.03;2.38;;;11.20;99.90;;;;;;5069801;28;20135;-76
2023/03/13 03:26:59;;;;;;;5.82;2.22;;;12.00;99.90;;;;;;5069881;28;20051;-75
2023/03/13 03:29:26;;;;;;;5.22;2.10;;;11.70;99.90;;;;;;5069316;28;20380;-75
2023/03/13 03:31:52;;;;;;;6.80;2.58;;;12.50;99.90;;;;;;5068931;28;20060;-75
2023/03/13 03:34:18;;;;;;;7.47;2.58;;;11.10;99.90;;;;;;5068910;28;20044;-75
2023/03/13 03:36:43;;;;;;;5.03;2.22;;;11.60;99.90;;;;;;5069472;28;20049;-75
2023/03/13 03:39:09;;;;;;;6.50;2.22;;;11.50;99.90;;;;;;5070321;28;20460;-76
2023/03/13 03:41:36;;;;;;;5.25;2.03;;;11.70;99.90;;;;;;5061647;28;20063;-75
2023/03/13 03:44:03;;;;;;;3.72;1.83;;;14.10;99.90;;;;;;5086954;28;20051;-74
2023/03/13 03:46:28;;;;;;;3.22;1.80;;;14.80;99.90;;;;;;5067744;28;20052;-75
2023/03/13 03:48:54;;;;;;;3.58;2.00;;;14.50;99.90;;;;;;5070897;28;20051;-75
2023/03/13 03:51:20;;;;;;;3.45;1.60;;;15.40;99.90;;;;;;5068945;28;20490;-75
2023/03/13 03:53:47;;;;;;;2.85;1.88;;;11.70;99.90;;;;;;5052846;28;20040;-75
2023/03/13 03:56:12;;;;;;;4.20;1.50;;;12.90;99.90;;;;;;5078336;28;20047;-75
2023/03/13 03:58:38;;;;;;;2.47;1.50;;;11.30;99.90;;;;;;5053023;28;20241;-75
2023/03/13 04:01:04;;;;;;;3.30;1.92;;;11.50;99.90;;;;;;5068786;28;20535;-75
2023/03/13 04:03:30;;;;;;;2.88;1.45;;;11.70;99.90;;;;;;5070539;28;20146;-75
2023/03/13 04:05:56;;;;;;;1.80;1.42;;;12.50;99.90;;;;;;5052348;28;20044;-75
2023/03/13 04:08:22;;;;;;;4.70;1.60;;;14.40;99.90;;;;;;5069678;28;20434;-75
2023/03/13 04:10:48;;;;;;;3.85;1.60;;;16.20;99.90;;;;;;5069360;28;20045;-75
2023/03/13 04:13:14;;;;;;;2.67;1.50;;;13.70;99.90;;;;;;5069260;28;20429;-75
2023/03/13 04:15:40;;;;;;;2.42;1.48;;;12.30;99.90;;;;;;5069237;28;20048;-74
2023/03/13 04:18:06;;;;;;;2.65;1.55;;;12.20;99.90;;;;;;5052096;28;20044;-74
2023/03/13 04:20:32;;;;;;;2.35;1.48;;;15.70;99.90;;;;;;5069604;28;20036;-74
2023/03/13 04:22:57;;;;;;;1.40;1.17;;;12.80;99.90;;;;;;5069637;28;20142;-74
2023/03/13 04:25:23;;;;;;;2.72;1.60;;;14.30;99.90;;;;;;5052953;28;20121;-74
2023/03/13 04:27:49;;;;;;;2.28;1.80;;;15.70;99.90;;;;;;5057843;28;20044;-74
2023/03/13 04:30:15;;;;;;;2.63;2.10;;;16.80;99.90;;;;;;5079387;28;20099;-74
2023/03/13 04:32:41;;;;;;;3.38;2.38;;;12.00;99.90;;;;;;5069502;28;20037;-74
2023/03/13 04:35:07;;;;;;;4.00;2.42;;;14.70;99.90;;;;;;5070760;28;20419;-75
2023/03/13 04:37:32;;;;;;;4.45;3.20;;;16.30;99.90;;;;;;5072438;28;20037;-74
2023/03/13 04:39:58;;;;;;;4.18;3.35;;;16.50;99.90;;;;;;5080067;28;20048;-75
2023/03/13 04:42:24;;;;;;;5.47;3.67;;;17.00;99.90;;;;;;5079647;28;20630;-75
2023/03/13 04:44:49;;;;;;;4.53;3.88;;;16.60;99.90;;;;;;5070318;28;20563;-75
2023/03/13 04:47:15;;;;;;;6.15;3.92;;;15.90;99.90;;;;;;5092898;28;20047;-74
2023/03/13 04:49:41;;;;;;;5.05;3.80;;;16.30;99.90;;;;;;5071875;28;20045;-74
2023/03/13 04:52:06;;;;;;;6.60;4.18;;;15.80;99.90;;;;;;5072708;28;20060;-75
2023/03/13 04:54:32;;;;;;;5.93;4.40;;;13.00;99.90;;;;;;5076034;28;20437;-76
2023/03/13 04:56:58;;;;;;;7.22;4.75;;;12.60;99.90;;;;;;5092548;28;20428;-76
2023/03/13 04:59:23;;;;;;;8.27;4.55;;;14.50;99.90;;;;;;5085210;28;20036;-77
2023/03/13 05:01:49;;;;;;;5.43;4.22;;;17.80;99.90;;;;;;5072104;28;20044;-75
2023/03/13 05:04:15;;;;;;;5.72;4.05;;;18.10;99.90;;;;;;5055477;28;20131;-74
2023/03/13 05:06:41;;;;;;;5.18;4.00;;;12.60;99.90;;;;;;5072390;28;20044;-75
2023/03/13 05:09:06;;;;;;;4.32;3.72;;;14.10;99.90;;;;;;5056001;28;20101;-74
2023/03/13 05:11:32;;;;;;;5.10;3.70;;;17.70;99.90;;;;;;5078032;28;20050;-75
2023/03/13 05:13:58;;;;;;;7.60;4.40;;;14.70;99.90;;;;;;5075478;28;20384;-75
2023/03/13 05:16:24;;;;;;;12.45;4.40;;;16.80;99.90;;;;;;5082591;28;20085;-74
2023/03/13 05:18:49;;;;;;;9.05;4.78;;;13.80;99.90;;;;;;5079974;28;20075;-75
2023/03/13 05:21:15;;;;;;;9.05;4.70;;;12.90;99.90;;;;;;5085741;28;20442;-75
2023/03/13 05:23:41;;;;;;;7.72;4.60;;;14.80;99.90;;;;;;5074942;28;20067;-75
2023/03/13 05:26:06;;;;;;;8.02;4.18;;;17.50;99.90;;;;;;5059694;28;20052;-76
2023/03/13 05:28:32;;;;;;;9.85;4.57;;;13.80;99.90;;;;;;5071644;28;20084;-77
2023/03/13 05:30:58;;;;;;;9.13;4.30;;;13.30;99.90;;;;;;5071539;28;20048;-76
2023/03/13 05:33:23;;;;;;;11.23;4.35;;;17.30;99.90;;;;;;5071368;28;20059;-76
2023/03/13 05:35:49;;;;;;;9.52;3.80;;;18.00;99.90;;;;;;5071505;28;20048;-77
2023/03/13 05:38:15;;;;;;;8.93;3.17;;;18.00;99.90;;;;;;5081614;28;20100;-76
2023/03/13 05:40:40;;;;;;;6.13;3.00;;;13.50;99.90;;;;;;5088810;28;20405;-76
2023/03/13 05:43:06;;;;;;;6.72;2.67;;;18.60;99.90;;;;;;5065520;28;20166;-77
2023/03/13 05:45:32;;;;;;;6.57;3.25;;;17.50;99.90;;;;;;5078405;28;20452;-76
2023/03/13 05:48:00;;;;;;;7.75;3.20;;;16.90;99.90;;;;;;5057026;28;20047;-76
2023/03/13 05:50:26;;;;;;;10.65;3.25;;;13.50;99.90;;;;;;5058856;28;20123;-75
2023/03/13 05:52:52;;;;;;;12.02;3.70;;;14.30;99.90;;;;;;5081610;28;20074;-75
2023/03/13 05:55:18;;;;;;;10.80;3.40;;;13.80;99.90;;;;;;5074964;28;20076;-76
2023/03/13 05:57:48;;;;;;;6.60;3.15;;;15.90;99.90;;;;;;5080191;28;20431;-75
2023/03/13 06:00:16;;;;;;;8.27;3.15;;;16.40;99.90;;;;;;5074483;28;20109;-76
2023/03/13 06:02:42;;;;;;;8.80;3.28;;;15.50;99.90;;;;;;5074994;28;20048;-76
2023/03/13 06:05:08;;;;;;;;;;;15.50;99.90;;;;;;5079428;28;20101;-76
2023/03/13 06:07:35;;;;;;;13.70;3.72;;;13.90;99.90;;;;;;5061768;28;20283;-76
2023/03/13 06:10:00;;;;;;;;;;;14.00;99.90;;;;;;5077492;28;20389;-75
2023/03/13 06:12:26;;;;;;;8.50;3.30;;;14.60;99.90;;;;;;5060389;28;20056;-76
2023/03/13 06:14:52;;;;;;;9.05;3.08;;;13.60;99.90;;;;;;5080928;28;20067;-76
2023/03/13 06:17:17;;;;;;;9.18;3.38;;;18.60;99.90;;;;;;5083746;28;20196;-76
2023/03/13 06:19:44;;;;;;;11.43;3.33;;;14.10;99.90;;;;;;5071066;28;20178;-76
2023/03/13 06:22:10;;;;;;;14.57;3.75;;;17.00;99.90;;;;;;5073256;28;20047;-76
2023/03/13 06:24:36;;;;;;;11.13;3.65;;;18.80;99.90;;;;;;5065221;28;20040;-76
2023/03/13 06:27:02;;;;;;;8.18;3.28;;;13.60;99.90;;;;;;5089685;28;20201;-76
2023/03/13 06:29:27;;;;;;;9.50;3.70;;;18.30;99.90;;;;;;5078000;28;20044;-76
2023/03/13 06:31:53;;;;;;;10.95;3.78;;;14.20;99.90;;;;;;5055329;28;20044;-75
2023/03/13 06:34:19;;;;;;;9.43;3.30;;;16.20;99.90;;;;;;5080875;28;20071;-76
2023/03/13 06:36:44;;;;;;;9.70;3.78;;;16.80;99.90;;;;;;5068835;28;20420;-75
2023/03/13 06:39:11;;;;;;;7.68;3.88;;;14.60;99.90;;;;;;5064675;28;20040;-75
2023/03/13 06:41:37;;;;;;;9.25;3.85;;;14.30;99.90;;;;;;5077597;28;20036;-75
2023/03/13 06:44:04;;;;;;;13.10;4.35;;;14.50;99.90;;;;;;5081615;28;20048;-75
2023/03/13 06:46:30;;;;;;;;;;;17.20;99.90;;;;;;5086045;28;20047;-76
2023/03/13 06:48:57;;;;;;;7.07;3.72;;;15.90;99.90;;;;;;5075204;28;20485;-75
2023/03/13 06:51:25;;;;;;;11.93;3.92;;;14.40;99.90;;;;;;5072208;28;20067;-75
2023/03/13 06:53:51;;;;;;;9.98;4.45;;;13.90;99.90;;;;;;5070093;28;20056;-76
2023/03/13 06:56:17;;;;;;;11.90;4.18;;;15.90;99.90;;;;;;5070194;28;20090;-76
2023/03/13 06:58:45;;;;;;;10.02;4.00;;;14.80;99.90;;;;;;5074667;28;20551;-76
2023/03/13 07:01:13;;;;;;;10.60;4.10;;;17.20;99.90;;;;;;5065044;28;20043;-77
2023/03/13 07:03:40;;;;;;;9.73;4.50;;;14.80;99.90;;;;;;5084713;28;20483;-75
2023/03/13 07:06:07;;;;;;;12.10;4.13;;;16.70;99.90;;;;;;5088045;28;20044;-75
2023/03/13 07:08:34;;;;;;;11.30;4.00;;;17.00;99.90;;;;;;5081208;28;20040;-76
2023/03/13 07:11:03;;;;;;;12.77;3.88;;;16.80;99.90;;;;;;5077712;28;20048;-76
2023/03/13 07:13:29;;;;;;;11.27;3.58;;;16.00;99.90;;;;;;5070277;28;20098;-75
2023/03/13 07:15:58;;;;;;;12.00;4.30;;;15.10;99.90;;;;;;5069620;28;20045;-75
2023/03/13 07:18:24;;;;;;;13.68;4.10;;;15.80;99.90;;;;;;5069658;28;20395;-75
2023/03/13 07:20:54;;;;;;;11.98;3.88;;;16.30;99.90;;;;;;5058241;28;20044;-74
2023/03/13 07:23:23;;;;;;;11.88;4.03;;;15.90;99.90;;;;;;5079959;28;20048;-75
2023/03/13 07:26:19;;;;;;;10.25;3.67;;;14.70;99.90;;;;;;5068767;28;20048;-76
2023/03/13 07:28:45;;;;;;;10.60;3.50;;;14.50;99.90;;;;;;5066530;28;20052;-75
2023/03/13 07:31:16;;;;;;;12.85;3.58;;;14.40;99.90;;;;;;5078857;28;20054;-75
2023/03/13 07:33:43;;;;;;;9.27;3.45;;;14.70;99.90;;;;;;5078312;28;20060;-75
2023/03/13 07:36:10;;;;;;;11.88;3.95;;;15.00;99.90;;;;;;5069847;28;20098;-75
2023/03/13 07:38:36;;;;;;;11.23;3.20;;;14.80;99.90;;;;;;5069026;28;20494;-75
2023/03/13 07:41:04;;;;;;;7.28;2.90;;;14.80;99.90;;;;;;5073921;28;20041;-76
2023/03/13 07:43:30;;;;;;;11.57;3.00;;;13.70;99.90;;;;;;5055239;28;20049;-75
2023/03/13 07:46:00;;;;;;;;;;;14.80;99.90;;;;;;5062091;28;20040;-75
2023/03/13 07:48:30;;;;;;;9.63;3.30;;;13.80;99.90;;;;;;5075008;28;19920;-75
2023/03/13 07:50:56;;;;;;;11.52;3.70;;;13.60;99.90;;;;;;5071120;28;20048;-75
2023/03/13 07:53:22;;;;;;;8.73;2.78;;;12.50;99.90;;;;;;5077726;28;20055;-74
2023/03/13 07:56:00;;;;;;;8.68;2.97;;;12.60;99.90;;;;;;5082842;28;20123;-76
2023/03/13 07:58:32;;;;;;;9.40;2.90;;;13.90;99.90;;;;;;5058535;28;20055;-77
2023/03/13 08:00:58;;;;;;;9.32;2.72;;;14.60;99.90;;;;;;5076534;28;20039;-77
2023/03/13 08:03:24;;;;;;;;;;;12.90;99.90;;;;;;5069155;28;20063;-76
2023/03/13 08:06:08;;;;;;;11.00;3.55;;;14.30;99.90;;;;;;5069073;28;19924;-76
2023/03/13 08:08:34;;;;;;;8.15;2.50;;;13.50;99.90;;;;;;5071788;28;20055;-77
2023/03/13 08:11:01;;;;;;;;;;;13.00;99.90;;;;;;5070922;28;20089;-77
2023/03/13 08:13:27;;;;;;;4.87;2.27;;;13.60;99.90;;;;;;5066189;28;20367;-75
2023/03/13 08:16:01;;;;;;;8.73;2.58;;;12.90;99.90;;;;;;5057786;28;20555;-75
2023/03/13 08:18:26;;;;;;;6.18;2.17;;;14.00;99.90;;;;;;5072963;28;20065;-75
2023/03/13 08:20:52;;;;;;;9.15;2.70;;;14.20;99.90;;;;;;5091566;28;20048;-75
2023/03/13 08:23:18;;;;;;;7.07;2.17;;;13.20;99.90;;;;;;5086068;28;20036;-75
2023/03/13 08:25:43;;;;;;;6.18;2.00;;;13.10;99.90;;;;;;5086246;28;20059;-76
2023/03/13 08:28:10;;;;;;;5.68;1.70;;;14.00;99.90;;;;;;5074220;28;20442;-75
2023/03/13 08:30:35;;;;;;;5.40;2.10;;;13.00;99.90;;;;;;5091480;28;20040;-75
2023/03/13 08:33:01;;;;;;;7.82;2.50;;;13.00;99.90;;;;;;5067124;28;20044;-76
2023/03/13 08:35:29;;;;;;;5.38;1.85;;;13.10;99.90;;;;;;5087787;28;20048;-75
2023/03/13 08:37:54;;;;;;;6.03;2.40;;;13.40;99.90;;;;;;5082677;28;20463;-75
2023/03/13 08:40:20;;;;;;;4.80;1.92;;;13.50;99.90;;;;;;5071506;28;20076;-75
2023/03/13 08:42:46;;;;;;;5.47;1.85;;;13.20;99.90;;;;;;5081571;28;20032;-74
2023/03/13 08:45:11;;;;;;;8.60;2.05;;;13.30;99.90;;;;;;5056483;28;20056;-75
2023/03/13 08:47:37;;;;;;;7.55;1.90;;;13.70;99.90;;;;;;5076880;28;20189;-75
2023/03/13 08:50:06;;;;;;;5.30;1.77;;;13.60;99.90;;;;;;5059765;28;20506;-75
2023/03/13 08:52:32;;;;;;;5.65;1.65;;;13.70;99.90;;;;;;5081389;28;20110;-76
2023/03/13 08:54:57;;;;;;;5.03;1.70;;;13.50;99.90;;;;;;5071955;28;20076;-75
2023/03/13 08:57:23;;;;;;;8.23;1.85;;;13.70;99.90;;;;;;5078736;28;20047;-75
2023/03/13 08:59:50;;;;;;;7.30;1.67;;;13.40;99.90;;;;;;5074823;28;20052;-75
2023/03/13 09:02:18;;;;;;;6.38;1.40;;;13.70;99.90;;;;;;5087670;28;20500;-75
2023/03/13 09:04:46;;;;;;;4.40;1.55;;;13.60;99.90;;;;;;5094112;28;20044;-75
2023/03/13 09:07:12;;;;;;;3.15;1.30;;;13.70;99.90;;;;;;5088479;28;20068;-75
2023/03/13 09:09:38;;;;;;;7.05;1.55;;;13.70;99.90;;;;;;5079485;28;20044;-75
2023/03/13 09:12:03;;;;;;;6.15;1.42;;;13.50;99.90;;;;;;5080466;28;20044;-75
2023/03/13 09:14:29;;;;;;;6.15;1.52;;;13.50;99.90;;;;;;5085421;28;20131;-76
2023/03/13 09:16:55;;;;;;;5.68;1.30;;;13.70;99.90;;;;;;5079196;28;20045;-75
2023/03/13 09:19:21;;;;;;;4.03;1.25;;;13.50;99.90;;;;;;5093322;28;20043;-75
2023/03/13 09:21:48;;;;;;;9.98;2.40;;;13.70;99.90;;;;;;5091942;28;20040;-75
2023/03/13 09:24:14;;;;;;;5.18;1.40;;;13.40;99.90;;;;;;5074029;28;20045;-75
2023/03/13 09:26:40;;;;;;;6.72;1.88;;;13.40;99.90;;;;;;5078641;28;20113;-75
2023/03/13 09:29:06;;;;;;;12.35;2.35;;;13.40;99.90;;;;;;5073493;28;20045;-75
2023/03/13 09:31:33;;;;;;;6.72;1.58;;;13.40;99.90;;;;;;5059248;28;20476;-76
2023/03/13 09:33:59;;;;;;;7.93;2.22;;;13.50;99.90;;;;;;5086765;28;20056;-76
2023/03/13 09:36:25;;;;;;;;;;;13.40;99.90;;;;;;5091831;28;20056;-76
2023/03/13 09:38:53;;;;;;;11.35;2.50;;;13.30;99.90;;;;;;5085859;28;19916;-75
2023/03/13 09:41:33;;;;;;;9.60;2.10;;;13.30;99.90;;;;;;5091461;28;20040;-76
2023/03/13 09:44:06;;;;;;;10.63;2.20;;;13.20;99.90;;;;;;5058949;28;20052;-75
2023/03/13 09:46:38;;;;;;;12.93;2.63;;;13.40;99.90;;;;;;5071675;28;20044;-76
2023/03/13 09:49:13;;;;;;;11.45;2.33;;;13.50;99.90;;;;;;5086682;28;20040;-75
2023/03/13 09:51:43;;;;;;;10.07;2.00;;;13.50;99.90;;;;;;5090187;28;20052;-75
2023/03/13 09:54:27;;;;;;;12.25;2.97;;;13.40;99.90;;;;;;5074820;28;20048;-75
2023/03/13 09:56:57;;;;;;;11.63;2.60;;;13.60;99.90;;;;;;5071027;28;20047;-75
2023/03/13 09:59:54;;;;;;;6.82;2.30;;;13.50;99.90;;;;;;5071127;28;20042;-76
2023/03/13 10:02:31;;;;;;;10.57;2.35;;;13.60;99.90;;;;;;5090125;28;20048;-75
2023/03/13 10:05:21;;;;;;;10.45;2.65;;;13.60;99.90;;;;;;5070882;28;20040;-75
2023/03/13 10:07:48;;;;;;;7.88;1.95;;;13.70;99.90;;;;;;5073153;28;20055;-74
2023/03/13 10:10:18;;;;;;;9.70;2.15;;;13.60;99.90;;;;;;5090680;28;20159;-75
2023/03/13 10:12:46;;;;;;;10.27;2.50;;;13.70;99.90;;;;;;5075833;28;20040;-74
2023/03/13 10:15:41;;;;;;;8.98;2.22;;;13.70;99.90;;;;;;5090371;28;20075;-75
2023/03/13 10:18:17;;;;;;;12.23;2.35;;;13.80;99.90;;;;;;5086436;28;20047;-75
2023/03/13 10:20:45;;;;;;;11.15;2.95;;;13.80;99.90;;;;;;5070846;28;20041;-75
2023/03/13 10:23:20;;;;;;;12.52;2.55;;;14.10;99.90;;;;;;5065237;28;20501;-75
2023/03/13 10:25:45;;;;;;;10.63;2.65;;;14.10;99.90;;;;;;5070250;28;20052;-76
2023/03/13 10:28:19;;;;;;;14.52;2.92;;;14.20;99.90;;;;;;5084926;28;20379;-75
2023/03/13 10:31:14;;;;;;;11.10;2.67;;;14.30;99.90;;;;;;5070083;28;20143;-75
2023/03/13 10:33:41;;;;;;;11.43;2.83;;;14.50;99.90;;;;;;5071599;28;20507;-75
2023/03/13 10:36:09;;;;;;;13.32;3.70;;;14.40;99.90;;;;;;5070131;28;20044;-75
2023/03/13 10:38:49;;;;;;;11.48;2.78;;;14.50;99.90;;;;;;5075400;28;20075;-75
2023/03/13 10:41:32;;;;;;;11.00;2.90;;;14.50;99.90;;;;;;5086843;28;20040;-75
2023/03/13 10:44:02;;;;;;;15.07;3.22;;;14.60;99.90;;;;;;5054165;28;20063;-75
2023/03/13 10:46:31;;;;;;;15.50;2.97;;;14.60;99.90;;;;;;5070400;28;20078;-75
2023/03/13 10:49:00;;;;;;;14.27;3.10;;;14.60;99.90;;;;;;5077832;28;20406;-75
2023/03/13 10:51:37;;;;;;;12.27;2.90;;;14.60;99.90;;;;;;5088565;28;20498;-75
2023/03/13 10:54:22;;;;;;;13.70;3.13;;;14.60;99.90;;;;;;5080902;28;20080;-75
2023/03/13 10:56:49;;;;;;;12.70;3.15;;;14.50;99.90;;;;;;5070068;28;20036;-75
2023/03/13 10:59:26;;;;;;;15.15;3.05;;;14.50;99.90;;;;;;5079248;28;20474;-75
2023/03/13 11:01:57;;;;;;;15.15;3.55;;;14.60;99.90;;;;;;5080100;28;20044;-75
2023/03/13 11:04:33;;;;;;;13.07;2.95;;;14.60;99.90;;;;;;5079128;28;20483;-75
2023/03/13 11:07:14;;;;;;;10.18;2.55;;;14.70;99.90;;;;;;5090414;28;20047;-75
2023/03/13 11:09:40;;;;;;;11.70;2.97;;;14.60;99.90;;;;;;5078664;28;20056;-75
2023/03/13 11:12:24;;;;;;;9.68;2.60;;;14.60;99.90;;;;;;5080651;28;20051;-75
2023/03/13 11:14:56;;;;;;;14.27;2.78;;;14.60;99.90;;;;;;5077545;28;20048;-75
2023/03/13 11:17:41;;;;;;;12.05;2.55;;;14.60;99.90;;;;;;5052501;28;20089;-74
2023/03/13 11:20:37;;;;;;;11.25;2.90;;;14.90;99.90;;;;;;5081294;28;20128;-75
2023/03/13 11:23:28;;;;;;;8.57;2.60;;;14.90;99.90;;;;;;5069249;28;20091;-75
2023/03/13 11:26:20;;;;;;;12.40;2.70;;;14.90;99.90;;;;;;5069134;28;20066;-75
2023/03/13 11:28:57;;;;;;;10.80;2.40;;;14.90;99.90;;;;;;5069474;28;20369;-75
2023/03/13 11:31:36;;;;;;;10.02;2.53;;;15.00;99.90;;;;;;5073793;28;20038;-75
2023/03/13 11:34:09;;;;;;;10.85;2.47;;;15.10;99.90;;;;;;5084525;28;20523;-75
2023/03/13 11:36:55;;;;;;;8.45;2.50;;;15.10;99.90;;;;;;5069665;28;20055;-75
2023/03/13 11:39:56;;;;;;;9.05;2.35;;;14.90;99.90;;;;;;5074881;28;20123;-75
2023/03/13 11:42:56;;;;;;;8.73;2.28;;;14.90;99.90;;;;;;5085361;28;20097;-75
2023/03/13 11:45:41;;;;;;;11.43;2.63;;;14.80;99.90;;;;;;5075233;28;20040;-75
2023/03/13 11:48:21;;;;;;;7.68;2.15;;;14.90;99.90;;;;;;5072818;28;20057;-75
2023/03/13 11:51:16;;;;;;;11.30;2.40;;;14.80;99.90;;;;;;5088185;28;20130;-75
2023/03/13 11:53:53;;;;;;;8.45;2.25;;;14.90;99.90;;;;;;5074691;28;20480;-75
2023/03/13 11:56:36;;;;;;;7.88;2.03;;;14.90;99.90;;;;;;5073243;28;20051;-74
2023/03/13 11:59:20;;;;;;;8.45;2.05;;;15.00;99.90;;;;;;5074942;28;20055;-74
2023/03/13 12:01:53;;;;;;;9.27;2.45;;;15.00;99.90;;;;;;5087172;28;20261;-75
2023/03/13 12:04:22;;;;;;;10.30;2.30;;;15.00;99.90;;;;;;5080373;28;20225;-76
2023/03/13 12:07:00;;;;;;;8.25;2.22;;;15.10;99.90;;;;;;5082904;28;20044;-74
2023/03/13 12:09:42;;;;;;;8.57;2.13;;;15.10;99.90;;;;;;5087204;28;20387;-73
2023/03/13 12:12:50;;;;;;;8.30;2.33;;;15.20;99.90;;;;;;5090172;28;20036;-75
2023/03/13 12:15:26;;;;;;;11.85;2.40;;;15.40;99.90;;;;;;5070504;28;20496;-72
2023/03/13 12:18:27;;;;;;;10.05;2.30;;;15.40;99.90;;;;;;5086434;28;20486;-73
2023/03/13 12:21:16;;;;;;;13.30;2.75;;;15.30;99.90;;;;;;5080071;28;20036;-72
2023/03/13 12:24:20;;;;;;;12.20;2.72;;;15.30;99.90;;;;;;5069951;28;20056;-75
2023/03/13 12:26:58;;;;;;;12.25;2.65;;;15.40;99.90;;;;;;5084225;28;20105;-74
2023/03/13 12:29:32;;;;;;;14.00;2.97;;;15.50;99.90;;;;;;5076429;28;20127;-73
2023/03/13 12:32:17;;;;;;;12.48;2.80;;;15.30;94.60;;;;;;5080899;28;20468;-72
2023/03/13 12:35:16;;;;;;;11.68;2.67;;;15.30;94.50;;;;;;5072109;28;20053;-74
2023/03/13 12:38:04;;;;;;;14.10;2.97;;;15.50;94.60;;;;;;5081620;28;20047;-74
2023/03/13 12:40:51;;;;;;;11.70;3.05;;;15.60;95.90;;;;;;5080052;28;20513;-73
2023/03/13 12:43:28;;;;;;;10.85;2.70;;;15.70;95.00;;;;;;5065088;28;20040;-74
2023/03/13 12:46:20;;;;;;;12.15;3.10;;;15.80;92.70;;;;;;5084302;28;20375;-74
2023/03/13 12:48:49;;;;;;;12.60;3.00;;;16.00;85.00;;;;;;5076763;28;20040;-73
2023/03/13 12:51:32;;;;;;;13.70;3.30;;;16.00;67.40;;;;;;5074006;28;20044;-75
2023/03/13 12:54:19;;;;;;;11.20;2.95;;;16.00;75.30;;;;;;5081989;28;20048;-75
2023/03/13 12:57:12;;;;;;;16.60;3.45;;;16.00;75.00;;;;;;5077175;28;20040;-75
2023/03/13 12:59:38;;;;;;;18.60;3.50;;;16.00;68.50;;;;;;5072174;28;20043;-73